Highland, Minnesota
Current Conditions -  °F | °C
As of 12:55 PM on Thursday 23 Oct 2014 (Local Time) from KFKA Reporting Station
Haze Haze  
Wind Chill: 46°   Ceiling: 300
Heat Index: 48°   Visibility: 2.5mi
Dew Point: 47°   Wind: 6mph
Humidity: 95%   Direction: 190°S
Pressure: 30.03"   Gusts: NA
Location:  43.7165°N, 91.9871°W
Report Text: KFKA 231755Z AUTO 19005KT 2 1/2SM BR OVC003 09/08 A3003 RMK AO2 60009 T00910084 10091 20078
Loading
Personal Weather Stations






























Interactive Weather Map
Tropical Storm Tracking
New forecast layout! Learn more

10-Day Weather Forecast

Advertisements
Track Severe Weather on mobile